createdAt,value
2023-05-06T00:02:05.971Z,97393.38
2023-05-06T00:04:32.586Z,97389.00
2023-05-06T00:07:02.649Z,97395.09
2023-05-06T00:09:29.412Z,97394.66
2023-05-06T00:11:56.856Z,97402.13
2023-05-06T00:14:23.446Z,97407.00
2023-05-06T00:16:50.020Z,97404.50
2023-05-06T00:19:17.290Z,97396.72
2023-05-06T00:21:43.874Z,97391.38
2023-05-06T00:24:10.428Z,97393.03
2023-05-06T00:26:37.006Z,97397.28
2023-05-06T00:29:03.801Z,97406.31
2023-05-06T00:31:30.801Z,97405.44
2023-05-06T00:33:59.561Z,97402.09
2023-05-06T00:36:26.149Z,97401.66
2023-05-06T00:38:53.353Z,97403.38
2023-05-06T00:41:19.950Z,97411.56
2023-05-06T00:43:46.525Z,97406.28
2023-05-06T00:46:13.177Z,97410.03
2023-05-06T00:48:39.834Z,97409.38
2023-05-06T00:51:07.284Z,97412.03
2023-05-06T00:53:33.854Z,97401.59
2023-05-06T00:56:00.427Z,97401.63
2023-05-06T00:58:26.986Z,97405.84
2023-05-06T01:00:53.626Z,97402.00
2023-05-06T01:03:20.348Z,97404.22
2023-05-06T01:05:47.015Z,97402.28
2023-05-06T01:08:13.614Z,97401.91
2023-05-06T01:10:41.039Z,97399.66
2023-05-06T01:13:09.109Z,97405.78
2023-05-06T01:15:35.838Z,97418.16
2023-05-06T01:18:03.216Z,97413.91
2023-05-06T01:20:30.869Z,97422.06
2023-05-06T01:22:57.474Z,97420.97
2023-05-06T01:25:24.074Z,97416.41
2023-05-06T01:27:50.677Z,97420.63
2023-05-06T01:30:20.522Z,97418.31
2023-05-06T01:32:47.131Z,97417.09
2023-05-06T01:35:13.734Z,97414.47
2023-05-06T01:37:40.302Z,97408.38
2023-05-06T01:40:06.894Z,97419.91
2023-05-06T01:42:37.720Z,97412.06
2023-05-06T01:45:04.332Z,97416.91
2023-05-06T01:47:30.945Z,97420.50
2023-05-06T01:49:58.357Z,97413.19
2023-05-06T01:52:24.939Z,97414.81
2023-05-06T01:54:51.527Z,97419.22
2023-05-06T01:57:18.136Z,97418.56
2023-05-06T01:59:44.705Z,97413.56
2023-05-06T02:02:11.276Z,97413.31
2023-05-06T02:04:37.878Z,97417.19
2023-05-06T02:07:05.129Z,97414.34
2023-05-06T02:09:31.737Z,97416.81
2023-05-06T02:11:58.308Z,97410.16
2023-05-06T02:14:24.931Z,97406.31
2023-05-06T02:16:51.495Z,97403.53
2023-05-06T02:19:18.141Z,97392.94
2023-05-06T02:21:45.071Z,97398.66
2023-05-06T02:24:11.635Z,97385.38
2023-05-06T02:26:40.951Z,97392.31
2023-05-06T02:29:10.290Z,97387.34
2023-05-06T02:31:41.002Z,97391.66
2023-05-06T02:34:07.619Z,97388.28
2023-05-06T02:36:34.209Z,97390.06
2023-05-06T02:39:00.800Z,97385.03
2023-05-06T02:41:27.384Z,97387.69
2023-05-06T02:43:54.686Z,97383.63
2023-05-06T02:46:22.156Z,97373.25
2023-05-06T02:48:49.005Z,97384.22
2023-05-06T02:51:18.417Z,97377.84
2023-05-06T02:53:44.966Z,97383.44
2023-05-06T02:56:11.640Z,97381.97
2023-05-06T02:58:38.207Z,97377.09
2023-05-06T03:01:15.576Z,97384.50
2023-05-06T03:03:43.346Z,97384.44
2023-05-06T03:06:09.946Z,97377.09
2023-05-06T03:08:36.492Z,97382.94
2023-05-06T03:11:05.387Z,97383.69
2023-05-06T03:13:33.352Z,97375.34
2023-05-06T03:16:00.580Z,97372.94
2023-05-06T03:18:27.158Z,97379.28
2023-05-06T03:20:54.115Z,97376.03
2023-05-06T03:23:21.131Z,97379.91
2023-05-06T03:25:47.706Z,97372.09
2023-05-06T03:28:17.101Z,97376.47
2023-05-06T03:30:43.743Z,97369.25
2023-05-06T03:33:11.351Z,97372.88
2023-05-06T03:35:37.930Z,97365.47
2023-05-06T03:38:04.509Z,97364.66
2023-05-06T03:40:31.255Z,97360.75
2023-05-06T03:42:57.802Z,97368.91
2023-05-06T03:45:24.379Z,97361.34
2023-05-06T03:47:50.958Z,97366.28
2023-05-06T03:50:17.605Z,97353.63
2023-05-06T03:52:44.174Z,97367.03
2023-05-06T03:55:10.972Z,97366.72
2023-05-06T03:57:37.759Z,97365.31
2023-05-06T04:00:04.393Z,97361.41
2023-05-06T04:02:31.155Z,97357.16
2023-05-06T04:04:57.845Z,97364.34
2023-05-06T04:07:24.598Z,97371.53
2023-05-06T04:09:51.185Z,97364.72
2023-05-06T04:12:17.912Z,97371.69
2023-05-06T04:14:44.501Z,97373.81
2023-05-06T04:17:11.092Z,97362.84
2023-05-06T04:19:37.663Z,97366.69
2023-05-06T04:22:04.247Z,97360.78
2023-05-06T04:24:33.182Z,97371.03
2023-05-06T04:26:59.741Z,97379.94
2023-05-06T04:29:26.883Z,97382.53
2023-05-06T04:31:53.451Z,97383.38
2023-05-06T04:34:20.077Z,97384.19
2023-05-06T04:36:47.617Z,97387.75
2023-05-06T04:39:14.184Z,97386.59
2023-05-06T04:41:40.767Z,97392.94
2023-05-06T04:44:07.542Z,97396.53
2023-05-06T04:46:34.335Z,97399.28
2023-05-06T04:49:01.097Z,97391.88
2023-05-06T04:51:27.685Z,97382.94
2023-05-06T04:53:55.002Z,97389.75
2023-05-06T04:56:21.584Z,97395.47
2023-05-06T04:58:48.137Z,97403.97
2023-05-06T05:01:14.802Z,97400.97
2023-05-06T05:03:41.489Z,97397.28
2023-05-06T05:06:08.103Z,97404.84
2023-05-06T05:08:34.737Z,97400.22
2023-05-06T05:11:01.307Z,97410.53
2023-05-06T05:13:28.295Z,97408.06
2023-05-06T05:15:54.881Z,97401.94
2023-05-06T05:18:21.530Z,97411.72
2023-05-06T05:20:48.105Z,97405.50
2023-05-06T05:23:15.065Z,97404.66
2023-05-06T05:25:41.636Z,97402.56
2023-05-06T05:28:08.205Z,97408.06
2023-05-06T05:30:34.793Z,97407.00
2023-05-06T05:33:01.512Z,97406.69
2023-05-06T05:35:28.166Z,97405.88
2023-05-06T05:37:54.731Z,97404.91
2023-05-06T05:40:21.313Z,97413.41
2023-05-06T05:42:47.865Z,97416.06
2023-05-06T05:45:14.467Z,97420.31
2023-05-06T05:47:41.094Z,97425.59
2023-05-06T05:50:07.714Z,97423.47
2023-05-06T05:52:35.038Z,97429.50
2023-05-06T05:55:01.827Z,97428.56
2023-05-06T05:57:28.569Z,97434.69
2023-05-06T05:59:55.135Z,97429.13
2023-05-06T06:02:21.756Z,97438.25
2023-05-06T06:04:48.489Z,97440.75
2023-05-06T06:07:15.061Z,97434.13
2023-05-06T06:09:41.659Z,97426.44
2023-05-06T06:12:08.227Z,97431.56
2023-05-06T06:14:35.178Z,97438.47
2023-05-06T06:17:01.772Z,97436.97
2023-05-06T06:19:28.374Z,97437.50
2023-05-06T06:21:57.257Z,97442.25
2023-05-06T06:24:23.834Z,97441.63
2023-05-06T06:26:50.963Z,97436.13
2023-05-06T06:29:17.583Z,97429.81
2023-05-06T06:31:44.185Z,97442.09
2023-05-06T06:34:11.850Z,97437.72
2023-05-06T06:36:39.093Z,97437.91
2023-05-06T06:39:05.673Z,97438.88
2023-05-06T06:41:32.293Z,97440.41
2023-05-06T06:43:58.945Z,97440.78
2023-05-06T06:46:25.563Z,97433.97
2023-05-06T06:48:52.205Z,97440.00
2023-05-06T06:51:20.302Z,97433.03
2023-05-06T06:53:46.893Z,97436.44
2023-05-06T06:56:13.503Z,97434.84
2023-05-06T06:58:40.456Z,97432.78
2023-05-06T07:01:09.549Z,97440.16
2023-05-06T07:03:36.132Z,97433.13
2023-05-06T07:06:03.047Z,97431.88
2023-05-06T07:08:29.641Z,97436.78
2023-05-06T07:10:56.205Z,97440.66
2023-05-06T07:13:22.946Z,97444.09
2023-05-06T07:15:49.926Z,97438.06
2023-05-06T07:18:16.567Z,97436.97
2023-05-06T07:20:43.255Z,97427.91
2023-05-06T07:23:09.834Z,97432.81
2023-05-06T07:25:36.395Z,97430.84
2023-05-06T07:28:03.062Z,97426.66
2023-05-06T07:30:29.665Z,97425.66
2023-05-06T07:32:57.515Z,97426.41
2023-05-06T07:35:24.202Z,97427.44
2023-05-06T07:37:50.773Z,97428.16
2023-05-06T07:40:17.793Z,97430.38
2023-05-06T07:42:44.377Z,97421.56
2023-05-06T07:45:11.493Z,97419.69
2023-05-06T07:47:38.331Z,97425.81
2023-05-06T07:50:04.977Z,97424.09
2023-05-06T07:52:32.917Z,97422.88
2023-05-06T07:54:59.602Z,97416.81
2023-05-06T07:57:26.190Z,97416.28
2023-05-06T07:59:52.812Z,97413.06
2023-05-06T08:02:19.493Z,97411.72
2023-05-06T08:04:46.138Z,97415.16
2023-05-06T08:07:14.245Z,97414.13
2023-05-06T08:09:40.838Z,97410.81
2023-05-06T08:12:07.398Z,97410.22
2023-05-06T08:14:34.011Z,97410.50
2023-05-06T08:17:00.582Z,97411.78
2023-05-06T08:19:27.321Z,97408.84
2023-05-06T08:21:53.874Z,97418.28
2023-05-06T08:24:20.453Z,97408.75
2023-05-06T08:26:47.036Z,97411.44
2023-05-06T08:29:13.654Z,97410.97
2023-05-06T08:31:40.244Z,97413.47
2023-05-06T08:34:06.824Z,97411.88
2023-05-06T08:36:33.461Z,97405.03
2023-05-06T08:39:00.061Z,97408.44
2023-05-06T08:41:30.868Z,97409.44
2023-05-06T08:43:57.572Z,97411.69
2023-05-06T08:46:24.195Z,97408.06
2023-05-06T08:48:50.780Z,97400.59
2023-05-06T08:51:17.367Z,97403.97
2023-05-06T08:53:43.933Z,97407.63
2023-05-06T08:56:10.522Z,97403.84
2023-05-06T08:58:37.086Z,97406.75
2023-05-06T09:01:03.712Z,97405.13
2023-05-06T09:03:31.624Z,97406.63
2023-05-06T09:05:58.386Z,97397.91
2023-05-06T09:08:24.956Z,97405.28
2023-05-06T09:10:51.595Z,97406.38
2023-05-06T09:13:18.204Z,97394.91
2023-05-06T09:15:44.920Z,97394.53
2023-05-06T09:18:11.742Z,97395.06
2023-05-06T09:20:38.407Z,97389.69
2023-05-06T09:23:05.005Z,97386.69
2023-05-06T09:25:31.623Z,97391.78
2023-05-06T09:27:58.255Z,97384.56
2023-05-06T09:30:24.956Z,97385.09
2023-05-06T09:32:51.606Z,97384.22
2023-05-06T09:35:18.229Z,97381.72
2023-05-06T09:37:45.473Z,97392.53
2023-05-06T09:40:12.080Z,97382.50
2023-05-06T09:42:38.643Z,97369.31
2023-05-06T09:45:05.391Z,97367.53
2023-05-06T09:47:32.937Z,97367.28
2023-05-06T09:49:59.576Z,97366.22
2023-05-06T09:52:26.246Z,97365.72
2023-05-06T09:54:52.826Z,97356.59
2023-05-06T09:57:19.626Z,97356.97
2023-05-06T09:59:46.556Z,97360.41
2023-05-06T10:02:13.230Z,97353.25
2023-05-06T10:04:39.948Z,97349.38
2023-05-06T10:07:06.771Z,97350.03
2023-05-06T10:09:33.318Z,97352.63
2023-05-06T10:11:59.891Z,97345.28
2023-05-06T10:14:26.474Z,97343.91
2023-05-06T10:16:53.074Z,97343.31
2023-05-06T10:19:19.666Z,97341.81
2023-05-06T10:21:48.983Z,97341.63
2023-05-06T10:24:15.561Z,97336.53
2023-05-06T10:26:42.165Z,97335.84
2023-05-06T10:29:08.845Z,97336.50
2023-05-06T10:31:35.459Z,97331.00
2023-05-06T10:34:02.070Z,97334.25
2023-05-06T10:36:28.631Z,97326.44
2023-05-06T10:38:55.207Z,97327.25
2023-05-06T10:41:22.063Z,97312.53
2023-05-06T10:43:49.067Z,97307.16
2023-05-06T10:46:15.811Z,97315.19
2023-05-06T10:48:42.551Z,97316.13
2023-05-06T10:51:12.042Z,97302.91
2023-05-06T10:53:38.646Z,97307.78
2023-05-06T10:56:05.235Z,97295.91
2023-05-06T10:58:31.818Z,97294.31
2023-05-06T11:00:58.454Z,97300.56
2023-05-06T11:03:25.323Z,97309.41
2023-05-06T11:05:51.975Z,97307.56
2023-05-06T11:08:18.541Z,97299.88
2023-05-06T11:10:45.135Z,97304.28
2023-05-06T11:13:14.140Z,97302.03
2023-05-06T11:15:40.764Z,97296.78
2023-05-06T11:18:07.450Z,97300.19
2023-05-06T11:20:34.078Z,97288.44
2023-05-06T11:23:00.642Z,97293.03
2023-05-06T11:25:27.246Z,97293.16
2023-05-06T11:27:53.887Z,97293.16
2023-05-06T11:30:20.487Z,97291.66
2023-05-06T11:32:47.145Z,97289.16
2023-05-06T11:35:13.835Z,97295.06
2023-05-06T11:37:43.382Z,97291.97
2023-05-06T11:40:10.168Z,97293.81
2023-05-06T11:42:36.966Z,97289.38
2023-05-06T11:45:03.522Z,97289.47
2023-05-06T11:47:31.330Z,97286.75
2023-05-06T11:49:57.926Z,97284.31
2023-05-06T11:52:24.532Z,97290.84
2023-05-06T11:54:51.183Z,97297.72
2023-05-06T11:57:18.760Z,97300.50
2023-05-06T11:59:45.324Z,97304.16
2023-05-06T12:02:11.902Z,97304.94
2023-05-06T12:04:38.568Z,97299.34
2023-05-06T12:07:05.177Z,97305.97
2023-05-06T12:09:32.020Z,97303.56
2023-05-06T12:12:00.354Z,97301.88
2023-05-06T12:14:26.937Z,97299.03
2023-05-06T12:16:55.915Z,97290.47
2023-05-06T12:19:22.737Z,97289.16
2023-05-06T12:21:49.306Z,97292.56
2023-05-06T12:24:15.969Z,97286.53
2023-05-06T12:26:43.261Z,97294.47
2023-05-06T12:29:09.853Z,97292.56
2023-05-06T12:31:37.430Z,97289.94
2023-05-06T12:34:04.091Z,97295.84
2023-05-06T12:36:30.638Z,97283.06
2023-05-06T12:38:58.369Z,97288.78
2023-05-06T12:41:24.946Z,97292.25
2023-05-06T12:43:51.547Z,97287.25
2023-05-06T12:46:18.329Z,97281.53
2023-05-06T12:48:44.938Z,97278.31
2023-05-06T12:51:11.502Z,97278.75
2023-05-06T12:53:38.069Z,97276.38
2023-05-06T12:56:04.661Z,97270.88
2023-05-06T12:58:31.242Z,97269.69
2023-05-06T13:00:57.859Z,97259.31
2023-05-06T13:03:24.537Z,97264.41
2023-05-06T13:05:51.229Z,97261.81
2023-05-06T13:08:17.834Z,97252.28
2023-05-06T13:10:44.417Z,97257.13
2023-05-06T13:13:11.014Z,97253.19
2023-05-06T13:15:37.625Z,97254.31
2023-05-06T13:18:04.248Z,97257.47
2023-05-06T13:20:32.370Z,97258.78
2023-05-06T13:22:58.931Z,97252.59
2023-05-06T13:25:26.502Z,97246.19
2023-05-06T13:27:54.254Z,97245.13
2023-05-06T13:30:21.286Z,97241.97
2023-05-06T13:32:48.031Z,97237.25
2023-05-06T13:35:15.164Z,97234.69
2023-05-06T13:37:41.745Z,97235.41
2023-05-06T13:40:08.476Z,97235.78
2023-05-06T13:42:35.129Z,97230.25
2023-05-06T13:45:01.703Z,97227.69
2023-05-06T13:47:28.390Z,97224.91
2023-05-06T13:50:00.214Z,97227.72
2023-05-06T13:52:26.900Z,97228.41
2023-05-06T13:54:53.523Z,97231.00
2023-05-06T13:57:20.099Z,97226.03
2023-05-06T13:59:46.709Z,97226.91
2023-05-06T14:02:13.645Z,97224.03
2023-05-06T14:04:40.472Z,97218.41
2023-05-06T14:07:07.070Z,97213.22
2023-05-06T14:09:34.369Z,97214.78
2023-05-06T14:12:04.393Z,97209.50
2023-05-06T14:14:30.989Z,97205.63
2023-05-06T14:16:57.673Z,97211.25
2023-05-06T14:19:24.267Z,97200.16
2023-05-06T14:21:51.207Z,97196.78
2023-05-06T14:24:17.866Z,97203.03
2023-05-06T14:26:44.506Z,97203.13
2023-05-06T14:29:11.146Z,97204.94
2023-05-06T14:31:38.101Z,97208.69
2023-05-06T14:34:05.155Z,97205.72
2023-05-06T14:36:31.721Z,97201.31
2023-05-06T14:38:58.361Z,97201.19
2023-05-06T14:41:25.683Z,97206.91
2023-05-06T14:43:52.640Z,97207.28
2023-05-06T14:46:19.319Z,97205.41
2023-05-06T14:48:46.031Z,97202.69
2023-05-06T14:51:12.618Z,97208.75
2023-05-06T14:53:39.883Z,97216.78
2023-05-06T14:56:06.474Z,97203.22
2023-05-06T14:58:33.439Z,97207.81
2023-05-06T15:01:00.094Z,97215.53
2023-05-06T15:03:26.761Z,97209.31
2023-05-06T15:05:54.535Z,97213.19
2023-05-06T15:08:21.130Z,97220.59
2023-05-06T15:10:47.716Z,97220.63
2023-05-06T15:13:14.400Z,97224.72
2023-05-06T15:15:41.209Z,97222.25
2023-05-06T15:18:07.891Z,97228.25
2023-05-06T15:20:34.552Z,97227.72
2023-05-06T15:23:01.198Z,97237.09
2023-05-06T15:25:35.767Z,97240.25
2023-05-06T15:28:04.620Z,97250.22
2023-05-06T15:30:31.292Z,97254.50
2023-05-06T15:32:57.967Z,97262.91
2023-05-06T15:35:24.566Z,97268.72
2023-05-06T15:37:51.178Z,97279.59
2023-05-06T15:40:17.770Z,97278.91
2023-05-06T15:42:44.331Z,97290.06
2023-05-06T15:45:10.938Z,97292.00
2023-05-06T15:47:37.666Z,97295.75
2023-05-06T15:50:16.411Z,97299.66
2023-05-06T15:52:47.723Z,97288.88
2023-05-06T15:55:14.336Z,97282.88
2023-05-06T15:57:40.951Z,97277.22
2023-05-06T16:00:07.565Z,97278.94
2023-05-06T16:02:34.245Z,97278.09
2023-05-06T16:05:00.960Z,97277.56
2023-05-06T16:07:30.669Z,97286.41
2023-05-06T16:09:57.259Z,97290.63
2023-05-06T16:12:23.865Z,97302.47
2023-05-06T16:14:50.451Z,97315.34
2023-05-06T16:17:17.036Z,97323.81
2023-05-06T16:19:43.935Z,97312.31
2023-05-06T16:22:10.518Z,97328.16
2023-05-06T16:24:37.101Z,97329.13
2023-05-06T16:27:03.669Z,97338.50
2023-05-06T16:29:30.356Z,97355.06
2023-05-06T16:31:57.001Z,97358.13
2023-05-06T16:34:23.635Z,97369.19
2023-05-06T16:36:50.240Z,97369.28
2023-05-06T16:39:16.835Z,97373.59
2023-05-06T16:41:43.425Z,97371.00
2023-05-06T16:44:10.774Z,97367.94
2023-05-06T16:46:37.399Z,97378.34
2023-05-06T16:49:04.155Z,97377.47
2023-05-06T16:51:30.722Z,97383.41
2023-05-06T16:53:57.308Z,97398.81
2023-05-06T16:56:28.221Z,97404.66
2023-05-06T16:58:59.653Z,97401.56
2023-05-06T17:01:26.283Z,97393.25
2023-05-06T17:03:52.864Z,97397.97
2023-05-06T17:06:19.442Z,97394.34
2023-05-06T17:08:46.018Z,97392.72
2023-05-06T17:11:12.613Z,97383.13
2023-05-06T17:13:39.420Z,97382.03
2023-05-06T17:16:06.022Z,97389.66
2023-05-06T17:18:32.585Z,97388.41
2023-05-06T17:20:59.169Z,97397.38
2023-05-06T17:23:25.723Z,97401.91
2023-05-06T17:25:52.919Z,97404.72
2023-05-06T17:28:19.561Z,97401.34
2023-05-06T17:30:46.206Z,97403.88
2023-05-06T17:33:12.887Z,97400.00
2023-05-06T17:35:39.564Z,97407.19
2023-05-06T17:38:06.499Z,97406.97
2023-05-06T17:40:33.137Z,97413.53
2023-05-06T17:42:59.716Z,97410.88
2023-05-06T17:45:26.328Z,97412.81
2023-05-06T17:47:52.981Z,97412.88
2023-05-06T17:50:19.570Z,97410.19
2023-05-06T17:52:46.157Z,97415.47
2023-05-06T17:55:17.071Z,97416.19
2023-05-06T17:57:44.278Z,97417.78
2023-05-06T18:00:10.849Z,97423.47
2023-05-06T18:02:37.564Z,97434.09
2023-05-06T18:05:04.676Z,97442.00
2023-05-06T18:07:31.237Z,97443.03
2023-05-06T18:09:57.841Z,97436.97
2023-05-06T18:12:24.408Z,97440.44
2023-05-06T18:14:51.120Z,97445.19
2023-05-06T18:17:17.866Z,97447.72
2023-05-06T18:19:46.442Z,97449.00
2023-05-06T18:22:13.056Z,97449.59
2023-05-06T18:24:39.628Z,97446.63
2023-05-06T18:27:06.283Z,97446.97
2023-05-06T18:29:32.870Z,97444.94
2023-05-06T18:31:59.502Z,97462.09
2023-05-06T18:34:26.137Z,97450.75
2023-05-06T18:36:53.054Z,97456.19
2023-05-06T18:39:19.649Z,97471.13
2023-05-06T18:41:46.245Z,97466.28
2023-05-06T18:44:12.897Z,97465.66
2023-05-06T18:46:39.494Z,97461.81
2023-05-06T18:49:06.622Z,97467.16
2023-05-06T18:51:33.468Z,97465.56
2023-05-06T18:54:00.172Z,97459.94
2023-05-06T18:56:26.775Z,97458.13
2023-05-06T18:58:53.386Z,97467.88
2023-05-06T19:01:20.044Z,97465.91
2023-05-06T19:03:46.675Z,97470.59
2023-05-06T19:06:13.581Z,97481.50
2023-05-06T19:08:46.332Z,97480.91
2023-05-06T19:11:12.996Z,97473.69
2023-05-06T19:13:39.726Z,97464.66
2023-05-06T19:16:06.328Z,97473.22
2023-05-06T19:18:32.910Z,97489.09
2023-05-06T19:20:59.699Z,97489.28
2023-05-06T19:23:26.262Z,97504.72
2023-05-06T19:25:52.886Z,97506.06
2023-05-06T19:28:19.447Z,97510.69
2023-05-06T19:30:46.049Z,97513.09
2023-05-06T19:33:12.677Z,97517.75
2023-05-06T19:35:39.322Z,97518.56
2023-05-06T19:38:05.919Z,97514.28
2023-05-06T19:40:32.508Z,97517.78
2023-05-06T19:42:59.088Z,97510.47
2023-05-06T19:45:25.679Z,97515.59
2023-05-06T19:47:52.417Z,97513.44
2023-05-06T19:50:19.030Z,97518.78
2023-05-06T19:52:45.718Z,97521.66
2023-05-06T19:55:12.443Z,97526.09
2023-05-06T19:57:39.283Z,97511.97
2023-05-06T20:00:05.981Z,97525.75
2023-05-06T20:02:32.788Z,97528.00
2023-05-06T20:04:59.630Z,97523.94
2023-05-06T20:07:26.194Z,97517.34
2023-05-06T20:09:52.783Z,97520.63
2023-05-06T20:12:19.533Z,97519.94
2023-05-06T20:14:46.193Z,97515.22
2023-05-06T20:17:12.742Z,97521.59
2023-05-06T20:19:39.322Z,97511.03
2023-05-06T20:22:05.894Z,97512.97
2023-05-06T20:24:32.701Z,97508.72
2023-05-06T20:26:59.272Z,97508.22
2023-05-06T20:29:25.863Z,97508.19
2023-05-06T20:31:52.526Z,97501.38
2023-05-06T20:34:19.139Z,97500.06
2023-05-06T20:36:45.691Z,97509.19
2023-05-06T20:39:12.289Z,97503.16
2023-05-06T20:41:38.886Z,97505.75
2023-05-06T20:44:05.620Z,97511.81
2023-05-06T20:46:32.211Z,97505.88
2023-05-06T20:49:01.671Z,97514.38
2023-05-06T20:51:28.257Z,97507.91
2023-05-06T20:53:54.802Z,97506.63
2023-05-06T20:56:23.142Z,97512.75
2023-05-06T20:58:49.941Z,97511.81
2023-05-06T21:01:16.938Z,97515.66
2023-05-06T21:03:43.616Z,97506.63
2023-05-06T21:06:10.284Z,97506.63
2023-05-06T21:08:37.867Z,97494.81
2023-05-06T21:11:04.482Z,97504.38
2023-05-06T21:13:31.143Z,97504.78
2023-05-06T21:15:58.878Z,97497.84
2023-05-06T21:18:25.621Z,97497.13
2023-05-06T21:20:52.427Z,97496.63
2023-05-06T21:23:19.012Z,97496.63
2023-05-06T21:25:45.644Z,97491.03
2023-05-06T21:28:12.211Z,97491.09
2023-05-06T21:30:39.134Z,97496.34
2023-05-06T21:33:05.752Z,97492.19
2023-05-06T21:35:32.396Z,97496.75
2023-05-06T21:37:58.966Z,97504.69
2023-05-06T21:40:25.729Z,97504.28
2023-05-06T21:42:52.331Z,97509.16
2023-05-06T21:45:18.886Z,97511.81
2023-05-06T21:47:45.504Z,97501.88
2023-05-06T21:50:12.147Z,97499.09
2023-05-06T21:52:38.726Z,97501.13
2023-05-06T21:55:07.901Z,97496.53
2023-05-06T21:57:34.627Z,97498.00
2023-05-06T22:00:01.672Z,97494.31
2023-05-06T22:02:28.366Z,97494.00
2023-05-06T22:04:55.010Z,97486.00
2023-05-06T22:07:21.615Z,97486.81
2023-05-06T22:09:48.219Z,97483.97
2023-05-06T22:12:14.802Z,97489.72
2023-05-06T22:14:41.882Z,97489.25
2023-05-06T22:17:08.950Z,97492.16
2023-05-06T22:19:35.576Z,97490.13
2023-05-06T22:22:02.479Z,97480.81
2023-05-06T22:24:29.092Z,97477.53
2023-05-06T22:26:55.682Z,97486.00
2023-05-06T22:29:22.281Z,97478.91
2023-05-06T22:31:48.895Z,97481.97
2023-05-06T22:34:15.510Z,97479.78
2023-05-06T22:36:42.138Z,97485.44
2023-05-06T22:39:11.551Z,97485.91
2023-05-06T22:41:38.099Z,97479.47
2023-05-06T22:44:04.805Z,97484.31
2023-05-06T22:46:31.477Z,97486.50
2023-05-06T22:49:01.103Z,97485.78
2023-05-06T22:51:27.688Z,97489.56
2023-05-06T22:53:54.256Z,97504.28
2023-05-06T22:56:21.142Z,97501.13
2023-05-06T22:58:47.993Z,97501.03
2023-05-06T23:01:15.747Z,97507.50
2023-05-06T23:03:42.419Z,97500.53
2023-05-06T23:06:09.639Z,97498.72
2023-05-06T23:08:36.213Z,97504.25
2023-05-06T23:11:02.788Z,97501.75
2023-05-06T23:13:31.541Z,97515.91
2023-05-06T23:15:58.132Z,97513.63
2023-05-06T23:18:24.758Z,97502.59
2023-05-06T23:20:51.319Z,97508.63
2023-05-06T23:23:18.914Z,97511.00
2023-05-06T23:25:45.576Z,97506.38
2023-05-06T23:28:12.369Z,97495.25
2023-05-06T23:30:39.012Z,97489.44
2023-05-06T23:33:05.710Z,97495.28
2023-05-06T23:35:32.437Z,97496.84
2023-05-06T23:37:59.028Z,97488.94
2023-05-06T23:40:25.705Z,97478.41
2023-05-06T23:42:52.549Z,97475.09
2023-05-06T23:45:19.109Z,97461.75
2023-05-06T23:47:45.878Z,97456.41
2023-05-06T23:50:12.654Z,97452.28
2023-05-06T23:52:39.620Z,97446.50
2023-05-06T23:55:06.195Z,97433.97
2023-05-06T23:57:32.991Z,97433.66
2023-05-06T23:59:59.577Z,97425.38
